Time;durP1;ratioP1;P1;durP2;ratioP2;P2;SDS_P1;SDS_P2;PMS_P1;PMS_P2;Temp;Humidity;BMP_temperature;BMP_pressure;BME280_temperature;BME280_humidity;BME280_pressure;Samples;Min_cycle;Max_cycle;Signal;HPM_P1;HPM_P2
2024/03/16 00:00:09;;;;;;;3.13;1.63;;;9.70;99.90;;;;;;493875;241;27983;-72
2024/03/16 00:02:05;;;;;;;4.83;1.83;;;9.70;99.90;;;;;;493498;241;28019;-74
2024/03/16 00:04:06;;;;;;;3.03;1.90;;;9.70;99.90;;;;;;494008;241;27968;-73
2024/03/16 00:06:07;;;;;;;6.40;2.00;;;9.70;99.90;;;;;;493988;241;28022;-73
2024/03/16 00:08:08;;;;;;;5.27;2.37;;;9.80;99.90;;;;;;493931;241;28099;-73
2024/03/16 00:10:10;;;;;;;4.33;1.90;;;9.70;99.90;;;;;;493995;241;28072;-75
2024/03/16 00:12:11;;;;;;;4.60;1.90;;;9.70;99.90;;;;;;494004;241;27601;-73
2024/03/16 00:14:12;;;;;;;3.53;2.07;;;9.70;99.90;;;;;;493990;241;28000;-74
2024/03/16 00:16:13;;;;;;;4.23;2.00;;;9.70;99.90;;;;;;493976;241;27913;-73
2024/03/16 00:18:15;;;;;;;6.60;2.10;;;9.70;99.90;;;;;;493989;237;28107;-73
2024/03/16 00:20:17;;;;;;;3.60;2.10;;;9.70;99.90;;;;;;494020;241;27985;-73
2024/03/16 00:22:18;;;;;;;4.03;2.43;;;9.70;99.90;;;;;;493968;241;27679;-73
2024/03/16 00:24:20;;;;;;;2.77;1.70;;;9.70;99.90;;;;;;493940;241;28153;-73
2024/03/16 00:26:20;;;;;;;6.53;2.10;;;9.70;99.90;;;;;;493803;241;28835;-72
2024/03/16 00:28:21;;;;;;;5.80;2.40;;;9.60;99.90;;;;;;493955;241;28454;-73
2024/03/16 00:30:23;;;;;;;4.40;2.10;;;9.60;99.90;;;;;;494029;241;28356;-74
2024/03/16 00:32:23;;;;;;;3.97;2.13;;;9.60;99.90;;;;;;493985;241;28384;-73
2024/03/16 00:34:25;;;;;;;4.67;1.83;;;9.50;99.90;;;;;;493976;241;28221;-74
2024/03/16 00:36:26;;;;;;;3.50;2.03;;;9.50;99.90;;;;;;494008;241;27887;-72
2024/03/16 00:38:27;;;;;;;5.03;2.40;;;9.50;99.90;;;;;;493949;241;28113;-73
2024/03/16 00:40:28;;;;;;;5.20;2.73;;;9.50;99.90;;;;;;493927;241;28031;-73
2024/03/16 00:42:30;;;;;;;6.60;2.70;;;9.50;99.90;;;;;;493968;241;28094;-72
2024/03/16 00:44:31;;;;;;;5.83;3.00;;;9.40;99.90;;;;;;493979;241;28495;-74
2024/03/16 00:46:32;;;;;;;3.00;2.27;;;9.40;99.90;;;;;;493975;237;28468;-74
2024/03/16 00:48:34;;;;;;;4.53;2.50;;;9.50;99.90;;;;;;493787;241;28377;-73
2024/03/16 00:50:35;;;;;;;6.60;2.93;;;9.50;99.90;;;;;;493945;237;28337;-73
2024/03/16 00:52:36;;;;;;;5.30;2.73;;;9.50;99.90;;;;;;493995;241;28628;-74
2024/03/16 00:54:38;;;;;;;3.57;2.50;;;9.40;99.90;;;;;;493974;241;28067;-74
2024/03/16 00:56:39;;;;;;;4.70;2.70;;;9.40;99.90;;;;;;493996;241;28057;-74
2024/03/16 00:58:40;;;;;;;6.13;2.43;;;9.40;99.90;;;;;;493919;241;27969;-73
2024/03/16 01:00:41;;;;;;;8.37;2.80;;;9.40;99.90;;;;;;493955;241;27984;-73
2024/03/16 01:02:42;;;;;;;3.57;2.50;;;9.40;99.90;;;;;;494009;241;27745;-75
2024/03/16 01:04:44;;;;;;;4.57;2.40;;;9.40;99.90;;;;;;493993;241;28031;-73
2024/03/16 01:06:45;;;;;;;5.77;2.37;;;9.30;99.90;;;;;;493943;241;28112;-74
2024/03/16 01:08:46;;;;;;;2.57;2.20;;;9.30;99.90;;;;;;493868;241;28055;-73
2024/03/16 01:10:47;;;;;;;5.00;2.10;;;9.30;99.90;;;;;;493981;241;28095;-73
2024/03/16 01:12:49;;;;;;;3.70;2.40;;;9.30;99.90;;;;;;493970;241;27872;-74
2024/03/16 01:14:50;;;;;;;1.90;1.80;;;9.30;99.90;;;;;;493893;241;28071;-73
2024/03/16 01:16:51;;;;;;;5.93;2.33;;;9.20;99.90;;;;;;493966;241;28024;-74
2024/03/16 01:18:53;;;;;;;4.67;2.00;;;9.20;99.90;;;;;;493933;241;28007;-73
2024/03/16 01:20:54;;;;;;;4.63;2.20;;;9.20;99.90;;;;;;493975;241;27832;-74
2024/03/16 01:22:55;;;;;;;4.73;2.07;;;9.20;99.90;;;;;;493958;241;28513;-74
2024/03/16 01:24:56;;;;;;;3.73;1.80;;;9.20;99.90;;;;;;493925;241;28486;-73
2024/03/16 01:26:57;;;;;;;6.53;2.07;;;9.10;99.90;;;;;;493884;241;28470;-74
2024/03/16 01:29:03;;;;;;;2.97;2.10;;;9.10;99.90;;;;;;494008;241;28276;-74
2024/03/16 01:31:00;;;;;;;3.73;1.80;;;9.10;99.90;;;;;;493616;241;28103;-73
2024/03/16 01:33:01;;;;;;;2.50;1.80;;;9.00;99.90;;;;;;493946;241;27627;-73
2024/03/16 01:35:02;;;;;;;4.03;1.80;;;9.00;99.90;;;;;;493945;241;27814;-73
2024/03/16 01:37:04;;;;;;;1.63;1.50;;;9.00;99.90;;;;;;493941;237;27626;-74
2024/03/16 01:39:05;;;;;;;3.60;1.60;;;9.00;99.90;;;;;;493928;241;27976;-75
2024/03/16 01:41:06;;;;;;;3.57;1.53;;;8.90;99.90;;;;;;493926;237;27587;-73
2024/03/16 01:43:07;;;;;;;2.17;1.60;;;8.90;99.90;;;;;;493955;241;27974;-74
2024/03/16 01:45:09;;;;;;;4.77;1.60;;;8.90;99.90;;;;;;493899;241;28079;-74
2024/03/16 01:47:10;;;;;;;4.00;1.70;;;8.90;99.90;;;;;;493936;241;28402;-73
2024/03/16 01:49:11;;;;;;;3.03;1.87;;;8.90;99.90;;;;;;493942;241;27649;-74
2024/03/16 01:51:12;;;;;;;5.13;1.80;;;8.90;99.90;;;;;;493971;241;27928;-73
2024/03/16 01:53:14;;;;;;;1.90;1.20;;;8.80;99.90;;;;;;493892;241;27621;-73
2024/03/16 01:55:15;;;;;;;2.60;1.83;;;8.80;99.90;;;;;;493964;241;28022;-73
2024/03/16 01:57:16;;;;;;;3.47;1.60;;;8.70;99.90;;;;;;493817;241;28035;-74
2024/03/16 01:59:17;;;;;;;2.20;1.47;;;8.70;99.90;;;;;;493933;241;27950;-73
2024/03/16 02:01:19;;;;;;;3.23;1.70;;;8.60;99.90;;;;;;493939;241;28417;-73
2024/03/16 02:03:20;;;;;;;4.00;1.77;;;8.60;99.90;;;;;;493947;241;28547;-73
2024/03/16 02:05:21;;;;;;;3.67;2.40;;;8.60;99.90;;;;;;494005;241;28551;-74
2024/03/16 02:07:22;;;;;;;2.80;1.50;;;8.50;99.90;;;;;;493984;241;28501;-73
2024/03/16 02:09:24;;;;;;;2.37;1.60;;;8.50;99.90;;;;;;493936;241;28571;-73
2024/03/16 02:11:25;;;;;;;1.63;1.50;;;8.40;99.90;;;;;;493952;237;27810;-73
2024/03/16 02:13:26;;;;;;;2.87;1.47;;;8.40;99.90;;;;;;493930;241;27967;-73
2024/03/16 02:15:27;;;;;;;1.30;1.20;;;8.40;99.90;;;;;;493997;241;28063;-75
2024/03/16 02:17:29;;;;;;;2.07;1.50;;;8.30;99.90;;;;;;493982;241;28056;-73
2024/03/16 02:19:31;;;;;;;2.07;1.43;;;8.20;99.90;;;;;;493925;241;27869;-73
2024/03/16 02:21:31;;;;;;;1.97;1.73;;;8.20;99.90;;;;;;493831;241;27868;-73
2024/03/16 02:23:32;;;;;;;2.00;1.50;;;8.20;99.90;;;;;;493949;241;27947;-73
2024/03/16 02:25:34;;;;;;;3.90;1.43;;;8.20;99.90;;;;;;493971;241;27896;-74
2024/03/16 02:27:35;;;;;;;3.50;1.70;;;8.30;99.90;;;;;;493970;241;27906;-74
2024/03/16 02:29:36;;;;;;;1.83;1.60;;;8.40;99.90;;;;;;493888;241;27870;-74
2024/03/16 02:31:38;;;;;;;2.27;1.77;;;8.40;99.90;;;;;;493973;241;28052;-73
2024/03/16 02:33:39;;;;;;;3.43;1.70;;;8.50;99.90;;;;;;493985;237;27940;-73
2024/03/16 02:35:40;;;;;;;2.30;1.90;;;8.50;99.90;;;;;;493963;241;28593;-74
2024/03/16 02:37:41;;;;;;;2.00;1.60;;;8.50;99.90;;;;;;493919;241;28549;-73
2024/03/16 02:39:43;;;;;;;4.37;1.80;;;8.50;99.90;;;;;;493908;241;28082;-73
2024/03/16 02:41:44;;;;;;;3.53;1.83;;;8.50;99.90;;;;;;493984;241;28589;-73
2024/03/16 02:43:45;;;;;;;2.70;1.50;;;8.50;99.90;;;;;;493939;241;28422;-74
2024/03/16 02:45:46;;;;;;;1.83;1.73;;;8.50;99.90;;;;;;493928;237;28510;-74
2024/03/16 02:47:47;;;;;;;2.80;1.60;;;8.50;99.90;;;;;;493903;241;28039;-78
2024/03/16 02:49:50;;;;;;;2.10;1.60;;;8.40;99.90;;;;;;493938;241;27520;-73
2024/03/16 02:51:50;;;;;;;2.03;1.23;;;8.40;99.90;;;;;;493883;241;28010;-75
2024/03/16 02:53:52;;;;;;;4.67;1.40;;;8.50;99.90;;;;;;493966;237;27608;-73
2024/03/16 02:55:52;;;;;;;2.40;1.30;;;8.50;99.90;;;;;;493945;241;27762;-73
2024/03/16 02:57:54;;;;;;;3.63;1.60;;;8.50;99.90;;;;;;493880;241;27994;-74
2024/03/16 02:59:55;;;;;;;2.40;1.60;;;8.50;99.90;;;;;;494032;241;28012;-73
2024/03/16 03:01:57;;;;;;;2.10;1.50;;;8.50;99.90;;;;;;493985;241;28192;-74
2024/03/16 03:03:57;;;;;;;1.43;1.27;;;8.50;99.90;;;;;;493937;241;28007;-73
2024/03/16 03:05:59;;;;;;;3.80;1.80;;;8.50;99.90;;;;;;493984;241;27737;-74
2024/03/16 03:08:00;;;;;;;4.03;2.00;;;8.50;99.90;;;;;;493978;241;27521;-74
2024/03/16 03:10:01;;;;;;;3.23;1.63;;;8.50;99.90;;;;;;494014;241;28468;-73
2024/03/16 03:12:04;;;;;;;2.80;1.93;;;8.50;99.90;;;;;;493984;241;28040;-74
2024/03/16 03:14:04;;;;;;;2.03;1.57;;;8.50;99.90;;;;;;493847;241;28416;-73
2024/03/16 03:16:05;;;;;;;2.70;1.60;;;8.60;99.90;;;;;;493969;241;28609;-73
2024/03/16 03:18:06;;;;;;;1.80;1.60;;;8.60;99.90;;;;;;493999;241;29249;-74
2024/03/16 03:20:08;;;;;;;1.87;1.40;;;8.60;99.90;;;;;;494014;241;28458;-73
2024/03/16 03:22:08;;;;;;;2.70;1.60;;;8.60;99.90;;;;;;493945;241;28413;-74
2024/03/16 03:24:10;;;;;;;1.60;1.47;;;8.60;99.90;;;;;;493965;241;27960;-73
2024/03/16 03:26:11;;;;;;;3.97;2.47;;;8.60;99.90;;;;;;494027;241;27962;-74
2024/03/16 03:28:12;;;;;;;3.47;1.50;;;8.60;99.90;;;;;;493996;241;27975;-75
2024/03/16 03:30:13;;;;;;;4.07;1.83;;;8.50;99.90;;;;;;494012;241;27967;-73
2024/03/16 03:32:15;;;;;;;1.53;1.43;;;8.50;99.90;;;;;;493986;241;28063;-75
2024/03/16 03:34:16;;;;;;;7.10;1.70;;;8.40;99.90;;;;;;493972;241;27817;-74
2024/03/16 03:36:17;;;;;;;6.77;1.73;;;8.40;99.90;;;;;;494022;241;28147;-73
2024/03/16 03:38:18;;;;;;;4.20;1.80;;;8.40;99.90;;;;;;493957;241;27997;-74
2024/03/16 03:40:20;;;;;;;2.67;1.70;;;8.50;99.90;;;;;;493994;241;28042;-72
2024/03/16 03:42:24;;;;;;;3.07;1.47;;;8.40;99.90;;;;;;493987;241;27753;-73
2024/03/16 03:44:24;;;;;;;3.43;1.77;;;8.40;99.90;;;;;;493747;237;27724;-74
2024/03/16 03:46:39;;;;;;;5.33;1.60;;;8.40;99.90;;;;;;493907;241;28026;-73
2024/03/16 03:48:41;;;;;;;2.63;1.73;;;8.40;99.90;;;;;;493185;241;28111;-73
2024/03/16 03:50:38;;;;;;;2.60;1.50;;;8.50;99.90;;;;;;493699;241;27666;-72
2024/03/16 03:52:39;;;;;;;2.53;1.87;;;8.50;99.90;;;;;;493999;241;28000;-74
2024/03/16 03:54:40;;;;;;;4.23;2.10;;;8.60;99.90;;;;;;493916;241;29390;-73
2024/03/16 03:56:41;;;;;;;2.10;1.83;;;8.60;99.90;;;;;;494052;241;28404;-73
2024/03/16 03:58:43;;;;;;;4.30;2.03;;;8.60;99.90;;;;;;493966;241;28486;-74
2024/03/16 04:00:47;;;;;;;2.20;2.00;;;8.60;99.90;;;;;;493991;241;28434;-73
2024/03/16 04:02:48;;;;;;;2.67;1.83;;;8.60;99.90;;;;;;494040;241;27935;-73
2024/03/16 04:04:49;;;;;;;2.40;2.23;;;8.60;99.90;;;;;;493971;241;27981;-73
2024/03/16 04:06:50;;;;;;;2.27;2.00;;;8.60;99.90;;;;;;494004;241;27796;-72
2024/03/16 04:08:52;;;;;;;4.33;2.10;;;8.60;99.90;;;;;;493995;241;28440;-73
2024/03/16 04:10:53;;;;;;;2.20;2.10;;;8.60;99.90;;;;;;493996;241;28448;-74
2024/03/16 04:12:54;;;;;;;8.50;3.00;;;8.60;99.90;;;;;;493972;241;28156;-73
2024/03/16 04:14:55;;;;;;;2.63;2.20;;;8.60;99.90;;;;;;493952;241;28335;-73
2024/03/16 04:16:57;;;;;;;4.60;2.47;;;8.60;99.90;;;;;;493983;241;28247;-72
2024/03/16 04:18:58;;;;;;;6.00;2.03;;;8.70;99.90;;;;;;493966;241;27936;-73
2024/03/16 04:20:59;;;;;;;2.93;2.60;;;8.70;99.90;;;;;;493965;241;28107;-74
2024/03/16 04:23:01;;;;;;;2.57;2.40;;;8.70;99.90;;;;;;493963;241;28024;-73
2024/03/16 04:25:03;;;;;;;3.40;2.03;;;8.70;99.90;;;;;;493921;241;27974;-74
2024/03/16 04:27:03;;;;;;;2.63;1.73;;;8.60;99.90;;;;;;493910;241;27983;-75
2024/03/16 04:29:05;;;;;;;3.93;2.10;;;8.60;99.90;;;;;;493955;241;27954;-73
2024/03/16 04:31:05;;;;;;;2.00;1.90;;;8.60;99.90;;;;;;493916;241;27728;-74
2024/03/16 04:33:07;;;;;;;1.90;1.80;;;8.70;99.90;;;;;;493946;241;27699;-73
2024/03/16 04:35:08;;;;;;;3.03;2.00;;;8.70;99.90;;;;;;493955;241;27616;-73
2024/03/16 04:37:09;;;;;;;2.40;2.10;;;8.70;99.90;;;;;;494002;241;27927;-74
2024/03/16 04:39:10;;;;;;;1.90;1.80;;;8.70;99.90;;;;;;493968;241;27793;-73
2024/03/16 04:41:13;;;;;;;2.70;2.03;;;8.70;99.90;;;;;;493979;241;27949;-74
2024/03/16 04:43:13;;;;;;;2.47;1.70;;;8.70;99.90;;;;;;493918;241;27784;-73
2024/03/16 04:45:14;;;;;;;2.20;2.00;;;8.70;99.90;;;;;;493825;241;27994;-73
2024/03/16 04:47:15;;;;;;;2.10;1.90;;;8.70;99.90;;;;;;493971;241;28517;-74
2024/03/16 04:49:17;;;;;;;3.33;1.83;;;8.70;99.90;;;;;;493957;241;28126;-73
2024/03/16 04:51:18;;;;;;;2.30;1.80;;;8.70;99.90;;;;;;493970;241;28675;-73
2024/03/16 04:53:19;;;;;;;2.17;2.03;;;8.70;99.90;;;;;;493889;241;29045;-73
2024/03/16 04:55:21;;;;;;;4.70;2.10;;;8.70;99.90;;;;;;494006;241;28484;-73
2024/03/16 04:57:22;;;;;;;2.07;1.90;;;8.70;99.90;;;;;;493968;241;28023;-74
2024/03/16 04:59:23;;;;;;;3.83;2.17;;;8.70;99.90;;;;;;493928;237;27806;-73
2024/03/16 05:01:25;;;;;;;6.00;1.83;;;8.70;99.90;;;;;;493940;241;27969;-73
2024/03/16 05:03:26;;;;;;;3.20;2.10;;;8.70;99.90;;;;;;493951;241;28087;-73
2024/03/16 05:05:27;;;;;;;3.23;2.43;;;8.70;99.90;;;;;;493941;241;27942;-73
2024/03/16 05:07:28;;;;;;;3.70;2.10;;;8.70;99.90;;;;;;493971;241;28099;-73
2024/03/16 05:09:29;;;;;;;3.13;1.93;;;8.70;99.90;;;;;;493889;241;27965;-73
2024/03/16 05:11:30;;;;;;;2.60;2.40;;;8.70;99.90;;;;;;493942;241;28131;-73
2024/03/16 05:13:32;;;;;;;2.10;2.00;;;8.70;99.90;;;;;;494006;241;28394;-73
2024/03/16 05:15:33;;;;;;;3.23;2.17;;;8.70;99.90;;;;;;493966;241;27883;-73
2024/03/16 05:17:38;;;;;;;2.50;2.30;;;8.70;99.90;;;;;;493970;241;28003;-73
2024/03/16 05:19:35;;;;;;;2.43;2.17;;;8.70;99.90;;;;;;493589;237;27891;-73
2024/03/16 05:21:37;;;;;;;3.10;2.00;;;8.70;99.90;;;;;;493981;241;28067;-73
2024/03/16 05:23:39;;;;;;;5.17;2.10;;;8.80;99.90;;;;;;493958;241;27947;-74
2024/03/16 05:25:39;;;;;;;7.80;2.60;;;8.80;99.90;;;;;;493895;241;28308;-73
2024/03/16 05:27:40;;;;;;;3.37;2.13;;;8.80;99.90;;;;;;493898;241;28069;-73
2024/03/16 05:29:42;;;;;;;4.00;2.03;;;8.80;99.90;;;;;;493918;237;28989;-73
2024/03/16 05:31:43;;;;;;;11.90;2.90;;;8.80;99.90;;;;;;493969;241;28436;-73
2024/03/16 05:33:44;;;;;;;4.97;2.57;;;8.80;99.90;;;;;;493904;237;28119;-74
2024/03/16 05:35:45;;;;;;;4.57;2.30;;;8.80;99.90;;;;;;493927;241;27953;-73
2024/03/16 05:37:47;;;;;;;2.80;2.30;;;8.80;99.90;;;;;;493890;241;27881;-74
2024/03/16 05:39:48;;;;;;;2.77;1.90;;;8.80;99.90;;;;;;493977;241;27992;-74
2024/03/16 05:41:49;;;;;;;5.40;2.30;;;8.80;99.90;;;;;;493976;237;27955;-72
2024/03/16 05:43:52;;;;;;;3.00;2.20;;;8.80;99.90;;;;;;493905;241;28088;-73
2024/03/16 05:45:52;;;;;;;2.90;1.93;;;8.80;99.90;;;;;;493838;241;27807;-73
2024/03/16 05:47:53;;;;;;;4.93;2.67;;;8.90;99.90;;;;;;493895;241;27510;-72
2024/03/16 05:49:54;;;;;;;4.00;2.23;;;8.80;99.90;;;;;;494006;241;28102;-73
2024/03/16 05:51:55;;;;;;;4.93;2.67;;;8.80;99.90;;;;;;493978;241;27821;-73
2024/03/16 05:53:57;;;;;;;3.43;2.23;;;8.80;99.90;;;;;;493948;241;27932;-73
2024/03/16 05:55:58;;;;;;;2.47;2.27;;;8.90;99.90;;;;;;493981;241;27882;-73
2024/03/16 05:57:59;;;;;;;7.93;3.00;;;8.90;99.90;;;;;;493964;241;27662;-74
2024/03/16 06:00:00;;;;;;;4.93;2.90;;;8.80;99.90;;;;;;494005;237;28131;-74
2024/03/16 06:02:02;;;;;;;4.17;2.80;;;8.90;99.90;;;;;;493962;241;28535;-72
2024/03/16 06:04:03;;;;;;;5.00;2.43;;;8.90;99.90;;;;;;493956;241;28449;-74
2024/03/16 06:06:05;;;;;;;9.60;3.20;;;8.90;99.90;;;;;;493970;241;29157;-73
2024/03/16 06:08:05;;;;;;;7.07;2.60;;;8.90;99.90;;;;;;493979;241;28506;-73
2024/03/16 06:10:10;;;;;;;2.90;2.30;;;8.90;99.90;;;;;;494023;241;28330;-73
2024/03/16 06:12:08;;;;;;;6.47;2.93;;;8.90;99.90;;;;;;493747;241;28487;-73
2024/03/16 06:14:12;;;;;;;6.53;3.37;;;9.00;99.90;;;;;;493970;241;28097;-73
2024/03/16 06:16:13;;;;;;;4.63;3.57;;;9.00;99.90;;;;;;493959;237;27946;-74
2024/03/16 06:18:14;;;;;;;3.83;2.87;;;9.00;99.90;;;;;;493932;241;28004;-75
2024/03/16 06:20:16;;;;;;;9.83;3.57;;;9.00;99.90;;;;;;494011;241;27947;-73
2024/03/16 06:22:18;;;;;;;10.13;3.13;;;9.00;99.90;;;;;;494000;241;27955;-74
2024/03/16 06:24:19;;;;;;;7.17;3.13;;;9.00;99.90;;;;;;493833;241;27814;-73
2024/03/16 06:26:19;;;;;;;5.20;2.40;;;9.00;99.90;;;;;;493977;241;28056;-73
2024/03/16 06:28:21;;;;;;;4.63;3.43;;;9.10;99.90;;;;;;493971;241;28032;-74
2024/03/16 06:30:27;;;;;;;6.53;3.10;;;9.00;99.90;;;;;;493979;241;27913;-73
2024/03/16 06:32:23;;;;;;;7.13;3.60;;;9.10;99.90;;;;;;493513;241;27978;-73
2024/03/16 06:34:25;;;;;;;4.13;2.57;;;9.10;99.90;;;;;;493950;241;28559;-73
2024/03/16 06:36:26;;;;;;;4.70;3.27;;;9.10;99.90;;;;;;494009;241;28461;-73
2024/03/16 06:38:29;;;;;;;4.60;3.00;;;9.20;99.90;;;;;;493965;241;28363;-75
2024/03/16 06:40:28;;;;;;;6.83;3.80;;;9.20;99.90;;;;;;493819;241;28251;-73
2024/03/16 06:42:29;;;;;;;6.00;3.30;;;9.20;99.90;;;;;;493949;241;28368;-74
2024/03/16 06:44:31;;;;;;;6.33;3.50;;;9.20;99.90;;;;;;493933;241;29121;-74
2024/03/16 06:46:32;;;;;;;3.97;3.20;;;9.20;99.90;;;;;;493984;241;27985;-73
2024/03/16 06:48:33;;;;;;;4.03;2.90;;;9.20;99.90;;;;;;493927;241;28005;-73
2024/03/16 06:50:36;;;;;;;8.20;4.40;;;9.20;99.90;;;;;;493958;241;27462;-73
2024/03/16 06:52:36;;;;;;;7.10;3.33;;;9.20;99.90;;;;;;493837;241;28019;-74
2024/03/16 06:54:37;;;;;;;5.40;3.07;;;9.30;99.90;;;;;;493981;241;28018;-75
2024/03/16 06:56:39;;;;;;;10.73;4.03;;;9.30;99.90;;;;;;493972;241;27496;-73
2024/03/16 06:58:39;;;;;;;5.47;3.30;;;9.20;99.90;;;;;;493927;241;27874;-73
2024/03/16 07:00:41;;;;;;;10.23;4.10;;;9.20;99.90;;;;;;493927;241;27641;-73
2024/03/16 07:02:42;;;;;;;5.17;3.63;;;9.30;99.90;;;;;;493954;241;28067;-73
2024/03/16 07:04:43;;;;;;;7.43;3.47;;;9.30;99.90;;;;;;493972;241;28071;-74
2024/03/16 07:06:44;;;;;;;7.37;3.37;;;9.30;99.90;;;;;;493971;241;28053;-73
2024/03/16 07:08:46;;;;;;;5.70;3.17;;;9.40;99.90;;;;;;493892;241;27868;-73
2024/03/16 07:10:47;;;;;;;5.53;2.93;;;9.40;99.90;;;;;;493913;237;28952;-72
2024/03/16 07:12:48;;;;;;;7.03;3.10;;;9.40;99.90;;;;;;493977;241;28574;-73
2024/03/16 07:14:49;;;;;;;6.57;3.53;;;9.40;99.90;;;;;;493958;241;28540;-74
2024/03/16 07:16:51;;;;;;;9.40;3.30;;;9.40;99.90;;;;;;493938;237;28521;-73
2024/03/16 07:18:52;;;;;;;8.03;3.50;;;9.40;99.90;;;;;;493901;241;28549;-73
2024/03/16 07:20:53;;;;;;;12.20;3.20;;;9.40;99.90;;;;;;493996;241;28716;-73
2024/03/16 07:22:54;;;;;;;7.57;2.90;;;9.50;99.90;;;;;;494003;237;27825;-73
2024/03/16 07:24:56;;;;;;;4.87;3.10;;;9.60;99.90;;;;;;493892;241;27942;-73
2024/03/16 07:26:57;;;;;;;4.33;2.70;;;9.60;99.90;;;;;;493946;237;27587;-73
2024/03/16 07:28:58;;;;;;;9.77;3.37;;;9.60;99.90;;;;;;493884;241;27880;-74
2024/03/16 07:30:59;;;;;;;4.37;3.33;;;9.60;99.90;;;;;;493966;241;27545;-74
2024/03/16 07:33:02;;;;;;;4.10;2.70;;;9.60;99.90;;;;;;493986;241;27836;-73
2024/03/16 07:35:06;;;;;;;4.53;3.37;;;9.60;99.90;;;;;;493902;241;27992;-74
2024/03/16 07:37:04;;;;;;;4.83;3.03;;;9.70;99.90;;;;;;493616;241;28194;-73
2024/03/16 07:39:08;;;;;;;12.10;3.70;;;9.70;99.90;;;;;;493891;241;27978;-73
2024/03/16 07:41:06;;;;;;;7.20;3.30;;;9.80;99.90;;;;;;493697;241;28153;-74
2024/03/16 07:43:07;;;;;;;7.13;3.30;;;9.80;99.90;;;;;;493944;241;27955;-73
2024/03/16 07:45:08;;;;;;;5.10;3.17;;;9.90;99.90;;;;;;493916;237;28231;-73
2024/03/16 07:47:09;;;;;;;11.50;3.17;;;9.80;99.90;;;;;;493947;241;28528;-73
2024/03/16 07:49:11;;;;;;;6.70;3.37;;;9.80;99.90;;;;;;493957;241;28408;-74
2024/03/16 07:51:14;;;;;;;7.63;3.17;;;9.80;99.90;;;;;;494012;241;28483;-74
2024/03/16 07:53:13;;;;;;;4.90;2.70;;;9.80;99.90;;;;;;493757;241;28200;-73
2024/03/16 07:55:14;;;;;;;5.03;2.50;;;9.80;99.90;;;;;;493951;241;28517;-74
2024/03/16 07:57:16;;;;;;;4.53;2.93;;;9.80;99.90;;;;;;493945;241;27967;-74
2024/03/16 07:59:19;;;;;;;4.77;2.87;;;9.80;99.90;;;;;;493973;241;27978;-73
2024/03/16 08:01:19;;;;;;;4.77;3.30;;;9.80;99.90;;;;;;493833;241;28062;-74
2024/03/16 08:03:20;;;;;;;6.97;3.20;;;9.80;99.90;;;;;;493896;241;27954;-74
2024/03/16 08:05:21;;;;;;;5.47;2.50;;;9.80;99.90;;;;;;493926;241;28002;-74
2024/03/16 08:07:23;;;;;;;4.90;2.90;;;9.80;99.90;;;;;;494006;241;27991;-74
2024/03/16 08:09:24;;;;;;;8.90;2.67;;;9.90;99.90;;;;;;493899;241;28075;-73
2024/03/16 08:11:27;;;;;;;5.03;2.30;;;9.90;99.90;;;;;;493985;241;27897;-73
2024/03/16 08:13:26;;;;;;;3.93;2.70;;;10.00;99.90;;;;;;493741;237;27664;-73
2024/03/16 08:15:27;;;;;;;6.53;2.17;;;10.00;99.90;;;;;;493921;241;27857;-74
2024/03/16 08:17:28;;;;;;;3.80;2.77;;;10.00;99.90;;;;;;494011;241;28008;-75
2024/03/16 08:19:29;;;;;;;3.03;2.10;;;9.90;99.90;;;;;;493938;241;27946;-73
2024/03/16 08:21:32;;;;;;;5.40;2.40;;;9.80;99.90;;;;;;493954;241;27878;-73
2024/03/16 08:23:32;;;;;;;3.00;2.47;;;9.80;99.90;;;;;;493837;237;28037;-73
2024/03/16 08:25:33;;;;;;;3.80;2.60;;;9.70;99.90;;;;;;494017;241;27936;-73
2024/03/16 08:27:36;;;;;;;4.33;2.40;;;9.70;99.90;;;;;;493992;241;27979;-73
2024/03/16 08:29:36;;;;;;;10.23;2.80;;;9.80;99.90;;;;;;493851;241;27817;-73
2024/03/16 08:31:37;;;;;;;4.83;2.00;;;9.90;99.90;;;;;;493818;241;28045;-74
2024/03/16 08:33:38;;;;;;;3.63;2.70;;;10.10;99.90;;;;;;493985;241;28649;-75
2024/03/16 08:35:39;;;;;;;4.87;2.77;;;10.20;99.90;;;;;;493961;241;28185;-73
2024/03/16 08:37:41;;;;;;;2.77;2.03;;;10.10;99.90;;;;;;493961;241;28491;-74
2024/03/16 08:39:43;;;;;;;3.97;2.20;;;10.00;99.90;;;;;;493923;241;28286;-73
2024/03/16 08:41:43;;;;;;;4.93;2.40;;;10.10;99.90;;;;;;493895;241;27981;-74
2024/03/16 08:43:44;;;;;;;3.43;3.03;;;10.00;99.90;;;;;;493951;241;28239;-74
2024/03/16 08:45:46;;;;;;;3.17;2.10;;;10.00;99.90;;;;;;493970;241;27959;-73
2024/03/16 08:47:47;;;;;;;6.40;2.83;;;9.90;99.90;;;;;;493957;241;27963;-73
2024/03/16 08:49:48;;;;;;;3.63;2.77;;;9.90;99.90;;;;;;493924;241;27990;-73
2024/03/16 08:51:49;;;;;;;3.33;2.00;;;9.90;99.90;;;;;;493982;241;27997;-74
2024/03/16 08:53:51;;;;;;;4.63;2.70;;;9.90;99.90;;;;;;493988;241;27965;-74
2024/03/16 08:55:56;;;;;;;3.90;2.80;;;10.00;99.90;;;;;;493943;241;27933;-73
2024/03/16 08:57:53;;;;;;;2.83;2.53;;;10.00;99.90;;;;;;493531;241;28386;-74
2024/03/16 08:59:54;;;;;;;2.80;2.27;;;9.90;99.90;;;;;;493928;241;27643;-73
2024/03/16 09:01:56;;;;;;;2.60;2.40;;;9.90;99.90;;;;;;493973;241;27946;-73
2024/03/16 09:03:57;;;;;;;3.13;2.40;;;9.90;99.90;;;;;;493973;237;28731;-73
2024/03/16 09:06:01;;;;;;;3.27;2.33;;;10.00;99.90;;;;;;493957;241;28349;-73
2024/03/16 09:08:00;;;;;;;3.00;2.20;;;10.00;99.90;;;;;;493700;237;28565;-74
2024/03/16 09:10:01;;;;;;;5.87;2.30;;;9.90;99.90;;;;;;493759;241;28648;-75
2024/03/16 09:12:04;;;;;;;7.17;3.00;;;10.00;99.90;;;;;;493993;241;27938;-74
2024/03/16 09:14:05;;;;;;;2.67;2.23;;;10.00;99.90;;;;;;493795;241;28470;-73
2024/03/16 09:16:08;;;;;;;3.73;2.70;;;10.10;99.90;;;;;;493785;241;27978;-73
2024/03/16 09:18:06;;;;;;;4.20;2.20;;;10.10;99.90;;;;;;493707;241;27996;-73
2024/03/16 09:20:10;;;;;;;9.43;2.27;;;10.20;99.90;;;;;;494005;241;28013;-74
2024/03/16 09:22:12;;;;;;;4.40;2.30;;;10.20;99.90;;;;;;493965;241;28621;-74
2024/03/16 09:24:12;;;;;;;3.00;2.47;;;10.10;99.90;;;;;;493956;238;28380;-72
2024/03/16 09:26:14;;;;;;;5.80;2.20;;;10.20;99.90;;;;;;493958;241;27995;-72
2024/03/16 09:28:15;;;;;;;2.40;2.20;;;10.40;99.90;;;;;;493943;241;27979;-71
2024/03/16 09:30:18;;;;;;;4.27;2.67;;;10.60;99.90;;;;;;494011;241;27851;-72
2024/03/16 09:32:18;;;;;;;3.30;2.53;;;10.80;99.90;;;;;;493808;241;27943;-73
2024/03/16 09:34:19;;;;;;;3.43;2.47;;;11.00;99.90;;;;;;493923;241;28058;-72
2024/03/16 09:36:20;;;;;;;2.70;2.40;;;11.10;99.90;;;;;;493934;241;28223;-73
2024/03/16 09:38:23;;;;;;;5.63;2.83;;;11.20;99.90;;;;;;493948;241;28554;-74
2024/03/16 09:40:22;;;;;;;3.13;2.50;;;11.40;99.90;;;;;;493880;241;28635;-72
2024/03/16 09:42:24;;;;;;;2.50;1.80;;;11.40;99.90;;;;;;493914;237;28899;-72
2024/03/16 09:44:25;;;;;;;4.97;2.60;;;11.30;99.90;;;;;;493925;241;28295;-71
2024/03/16 09:46:31;;;;;;;5.07;2.63;;;11.10;99.90;;;;;;493962;241;28267;-73
2024/03/16 09:48:27;;;;;;;3.00;2.33;;;11.00;99.90;;;;;;493515;241;28088;-73
2024/03/16 09:50:29;;;;;;;2.60;2.40;;;11.00;99.90;;;;;;493954;237;28308;-73
2024/03/16 09:52:30;;;;;;;3.00;2.40;;;11.10;99.90;;;;;;493956;241;28278;-72
2024/03/16 09:54:37;;;;;;;1.90;1.80;;;11.30;99.90;;;;;;493944;241;28305;-72
2024/03/16 09:56:36;;;;;;;3.70;2.00;;;11.40;99.90;;;;;;493768;241;29464;-73
2024/03/16 09:58:43;;;;;;;3.77;2.00;;;11.30;99.90;;;;;;493837;241;28247;-73
2024/03/16 10:00:43;;;;;;;2.40;1.80;;;11.30;99.90;;;;;;493736;241;28614;-74
2024/03/16 10:02:42;;;;;;;2.63;2.10;;;11.50;99.90;;;;;;493784;241;29083;-75
2024/03/16 10:04:43;;;;;;;4.33;1.90;;;11.60;99.90;;;;;;493951;241;28769;-74
2024/03/16 10:06:44;;;;;;;2.80;1.70;;;11.60;99.90;;;;;;493950;241;28419;-74
2024/03/16 10:08:45;;;;;;;2.40;1.80;;;11.60;99.90;;;;;;493944;241;28324;-75
2024/03/16 10:10:47;;;;;;;1.80;1.70;;;11.70;99.90;;;;;;493967;241;28141;-73
2024/03/16 10:12:48;;;;;;;2.03;1.80;;;11.80;99.90;;;;;;493976;241;28155;-75
2024/03/16 10:14:49;;;;;;;2.67;1.93;;;11.90;99.90;;;;;;493966;241;28043;-73
2024/03/16 10:16:50;;;;;;;2.43;1.90;;;12.00;99.90;;;;;;493963;241;29004;-73
2024/03/16 10:18:52;;;;;;;5.03;2.87;;;11.90;99.90;;;;;;493975;241;28461;-75
2024/03/16 10:20:53;;;;;;;3.77;2.87;;;11.80;99.90;;;;;;493982;241;28578;-73
2024/03/16 10:22:56;;;;;;;5.93;2.37;;;;;;;;;;493989;241;29048;-73
2024/03/16 10:24:57;;;;;;;2.53;2.33;;;11.30;99.90;;;;;;493959;241;27280;-73
2024/03/16 10:26:58;;;;;;;3.47;2.43;;;11.50;99.90;;;;;;493957;241;28431;-75
2024/03/16 10:28:59;;;;;;;2.60;2.33;;;11.50;99.90;;;;;;493790;241;28399;-73
2024/03/16 10:31:02;;;;;;;2.03;1.90;;;11.50;99.90;;;;;;493946;241;28429;-73
2024/03/16 10:33:02;;;;;;;1.90;1.80;;;11.70;99.90;;;;;;493802;241;28367;-74
2024/03/16 10:35:06;;;;;;;2.30;2.00;;;11.80;99.90;;;;;;493986;237;28497;-73
2024/03/16 10:37:05;;;;;;;2.27;1.90;;;11.80;99.90;;;;;;493763;241;28939;-74